MET'MAP v2.0
soon released !

Expected late october,
this new version will be
more efficient, smarter,
and hosted on a brand new
server x3 powerfull...
...and still free !


Not compatible ?
Try the mobile version !

LOG IN : | Subscribe | Disclaimer | Who is Orbifly ? |
ICAO code :

TAF - LSZB Bern Belp - 26 Sep 2020 12:45 UTC
Data Sources :     NOAA   


- Airport Elevation : 1674 ft
- IATA code : BRN
- No reported NOTAMs.


LSZB - Bern Belp

Latest METAR recorded : 2015/08/11 07:50 LSZB 110750Z VRB02KT 8000 SCT027 23/19 Q1017 NOSIG
TAF TAF LSZB
Valid from the 26 at 09:00 until the 26 at 18:00 UTC


260825Z 2609/2618 25011KT 9999 FEW012 SCT050 BKN065
PROB40
TEMPO 2609/2618 SHRA SCT030TCU
TEMPO 2609/2614 24015G25KT
BECMG 2614/2616 25005KT

Source NOAA
ATIS : +41 22 417 40 76


MET'MAP, your aeronautical weather chart ! - Copyright ORBIFLY December 2007

Programming & Development : Alexandra Zaïnal
Co-Developer : Marc-Olivier Méhu
Technical & hardware support : Manuel Goepfert
Concept & Financing : Baudouin d'Aumeries